createdAt,value
2023-05-21T00:00:10.941Z,17.79
2023-05-21T00:00:30.605Z,17.77
2023-05-21T00:00:43.611Z,17.79
2023-05-21T00:00:57.015Z,17.75
2023-05-21T00:01:10.024Z,17.76
2023-05-21T00:01:23.516Z,17.77
2023-05-21T00:01:41.636Z,17.72
2023-05-21T00:01:54.286Z,17.72
2023-05-21T00:02:07.616Z,17.76
2023-05-21T00:02:23.833Z,17.76
2023-05-21T00:02:41.362Z,17.71
2023-05-21T00:02:56.253Z,17.75
2023-05-21T00:03:09.056Z,17.74
2023-05-21T00:03:22.229Z,17.75
2023-05-21T00:03:35.017Z,17.74
2023-05-21T00:03:50.939Z,17.67
2023-05-21T00:04:12.034Z,17.75
2023-05-21T00:04:25.458Z,17.69
2023-05-21T00:04:38.706Z,17.76
2023-05-21T00:04:51.728Z,17.73
2023-05-21T00:05:04.923Z,17.74
2023-05-21T00:05:18.006Z,17.68
2023-05-21T00:05:31.041Z,17.74
2023-05-21T00:05:44.390Z,17.73
2023-05-21T00:06:00.047Z,17.67
2023-05-21T00:06:13.002Z,17.66
2023-05-21T00:06:28.824Z,17.71
2023-05-21T00:06:41.850Z,17.72
2023-05-21T00:06:57.223Z,17.68
2023-05-21T00:07:10.050Z,17.69
2023-05-21T00:07:22.382Z,17.70
2023-05-21T00:07:34.766Z,17.65
2023-05-21T00:07:47.428Z,17.70
2023-05-21T00:07:59.809Z,17.68
2023-05-21T00:08:12.238Z,17.69
2023-05-21T00:08:24.703Z,17.68
2023-05-21T00:08:37.298Z,17.66
2023-05-21T00:08:49.708Z,17.63
2023-05-21T00:09:02.534Z,17.66
2023-05-21T00:09:15.111Z,17.68
2023-05-21T00:09:28.988Z,17.64
2023-05-21T00:09:41.475Z,17.66
2023-05-21T00:09:57.081Z,17.67
2023-05-21T00:10:10.266Z,17.66
2023-05-21T00:10:23.129Z,17.59
2023-05-21T00:10:35.802Z,17.66
2023-05-21T00:10:49.088Z,17.63
2023-05-21T00:11:01.509Z,17.59
2023-05-21T00:11:13.587Z,17.64
2023-05-21T00:11:26.052Z,17.63
2023-05-21T00:11:39.052Z,17.64
2023-05-21T00:11:51.361Z,17.58
2023-05-21T00:12:04.517Z,17.58
2023-05-21T00:12:17.597Z,17.56
2023-05-21T00:12:30.078Z,17.60
2023-05-21T00:12:42.904Z,17.59
2023-05-21T00:12:55.655Z,17.60
2023-05-21T00:13:08.251Z,17.57
2023-05-21T00:13:20.572Z,17.59
2023-05-21T00:13:33.516Z,17.60
2023-05-21T00:13:48.825Z,17.59
2023-05-21T00:14:04.576Z,17.59
2023-05-21T00:14:17.064Z,17.60
2023-05-21T00:14:29.592Z,17.58
2023-05-21T00:14:42.610Z,17.59
2023-05-21T00:14:55.388Z,17.59
2023-05-21T00:15:09.479Z,17.53
2023-05-21T00:15:22.756Z,17.58
2023-05-21T00:15:35.930Z,17.48
2023-05-21T00:15:49.340Z,17.57
2023-05-21T00:16:01.766Z,17.59
2023-05-21T00:16:14.526Z,17.52
2023-05-21T00:16:27.120Z,17.52
2023-05-21T00:16:39.873Z,17.53
2023-05-21T00:16:52.887Z,17.56
2023-05-21T00:17:05.804Z,17.56
2023-05-21T00:17:23.212Z,17.55
2023-05-21T00:17:35.814Z,17.55
2023-05-21T00:17:48.516Z,17.50
2023-05-21T00:18:03.624Z,17.53
2023-05-21T00:18:16.673Z,17.51
2023-05-21T00:18:29.521Z,17.49
2023-05-21T00:18:41.988Z,17.46
2023-05-21T00:18:55.111Z,17.51
2023-05-21T00:19:07.607Z,17.52
2023-05-21T00:19:20.225Z,17.51
2023-05-21T00:19:32.926Z,17.52
2023-05-21T00:19:45.785Z,17.48
2023-05-21T00:19:58.790Z,17.49
2023-05-21T00:20:11.895Z,17.46
2023-05-21T00:20:24.764Z,17.52
2023-05-21T00:20:37.993Z,17.50
2023-05-21T00:20:52.655Z,17.45
2023-05-21T00:21:05.618Z,17.47
2023-05-21T00:21:18.655Z,17.50
2023-05-21T00:21:31.116Z,17.50
2023-05-21T00:21:46.113Z,17.50
2023-05-21T00:21:58.625Z,17.48
2023-05-21T00:22:11.677Z,17.49
2023-05-21T00:22:24.031Z,17.48
2023-05-21T00:22:36.692Z,17.45
2023-05-21T00:22:51.859Z,17.48
2023-05-21T00:23:04.515Z,17.48
2023-05-21T00:23:17.343Z,17.43
2023-05-21T00:23:29.812Z,17.40
2023-05-21T00:23:42.822Z,17.47
2023-05-21T00:23:56.623Z,17.44
2023-05-21T00:24:12.446Z,17.46
2023-05-21T00:24:25.128Z,17.45
2023-05-21T00:24:39.739Z,17.46
2023-05-21T00:24:52.992Z,17.42
2023-05-21T00:25:06.632Z,17.45
2023-05-21T00:25:19.457Z,17.42
2023-05-21T00:25:32.108Z,17.38
2023-05-21T00:25:44.707Z,17.44
2023-05-21T00:25:57.298Z,17.42
2023-05-21T00:26:12.526Z,17.44
2023-05-21T00:26:27.980Z,17.44
2023-05-21T00:26:44.470Z,17.40
2023-05-21T00:26:57.356Z,17.42
2023-05-21T00:27:10.545Z,17.42
2023-05-21T00:27:23.344Z,17.39
2023-05-21T00:27:35.923Z,17.41
2023-05-21T00:27:48.465Z,17.41
2023-05-21T00:28:01.001Z,17.35
2023-05-21T00:28:13.584Z,17.39
2023-05-21T00:28:26.391Z,17.38
2023-05-21T00:28:40.280Z,17.39
2023-05-21T00:28:52.973Z,17.34
2023-05-21T00:29:06.432Z,17.39
2023-05-21T00:29:19.110Z,17.35
2023-05-21T00:29:31.715Z,17.39
2023-05-21T00:29:44.620Z,17.38
2023-05-21T00:29:56.939Z,17.38
2023-05-21T00:30:10.046Z,17.38
2023-05-21T00:30:22.573Z,17.34
2023-05-21T00:30:35.139Z,17.30
2023-05-21T00:30:47.977Z,17.36
2023-05-21T00:31:00.350Z,17.34
2023-05-21T00:31:12.720Z,17.32
2023-05-21T00:31:25.155Z,17.28
2023-05-21T00:31:37.711Z,17.37
2023-05-21T00:31:49.974Z,17.35
2023-05-21T00:32:02.732Z,17.31
2023-05-21T00:32:15.286Z,17.37
2023-05-21T00:32:33.283Z,17.31
2023-05-21T00:32:45.852Z,17.35
2023-05-21T00:32:58.928Z,17.35
2023-05-21T00:33:11.659Z,17.35
2023-05-21T00:33:24.566Z,17.32
2023-05-21T00:33:37.170Z,17.30
2023-05-21T00:33:49.377Z,17.30
2023-05-21T00:34:02.003Z,17.34
2023-05-21T00:34:15.051Z,17.34
2023-05-21T00:34:28.138Z,17.28
2023-05-21T00:34:41.961Z,17.32
2023-05-21T00:34:57.017Z,17.32
2023-05-21T00:35:10.022Z,17.28
2023-05-21T00:35:22.726Z,17.28
2023-05-21T00:35:35.724Z,17.28
2023-05-21T00:35:48.409Z,17.30
2023-05-21T00:36:01.138Z,17.31
2023-05-21T00:36:13.543Z,17.30
2023-05-21T00:36:28.666Z,17.30
2023-05-21T00:36:41.155Z,17.29
2023-05-21T00:36:53.776Z,17.28
2023-05-21T00:37:06.234Z,17.28
2023-05-21T00:37:19.027Z,17.25
2023-05-21T00:37:31.646Z,17.30
2023-05-21T00:37:44.367Z,17.27
2023-05-21T00:37:57.036Z,17.26
2023-05-21T00:38:09.762Z,17.27
2023-05-21T00:38:22.891Z,17.26
2023-05-21T00:38:35.551Z,17.23
2023-05-21T00:38:48.879Z,17.28
2023-05-21T00:39:01.370Z,17.26
2023-05-21T00:39:14.430Z,17.25
2023-05-21T00:39:26.760Z,17.19
2023-05-21T00:39:40.888Z,17.24
2023-05-21T00:39:53.653Z,17.25
2023-05-21T00:40:07.590Z,17.25
2023-05-21T00:40:22.758Z,17.24
2023-05-21T00:40:35.841Z,17.21
2023-05-21T00:40:48.761Z,17.18
2023-05-21T00:41:02.584Z,17.24
2023-05-21T00:41:17.727Z,17.24
2023-05-21T00:41:32.514Z,17.19
2023-05-21T00:41:45.024Z,17.22
2023-05-21T00:41:57.905Z,17.17
2023-05-21T00:42:10.798Z,17.15
2023-05-21T00:42:25.860Z,17.13
2023-05-21T00:42:38.564Z,17.20
2023-05-21T00:42:51.604Z,17.11
2023-05-21T00:43:04.679Z,17.14
2023-05-21T00:43:17.785Z,17.13
2023-05-21T00:43:30.679Z,17.16
2023-05-21T00:43:45.997Z,17.18
2023-05-21T00:43:58.600Z,17.10
2023-05-21T00:44:11.442Z,17.09
2023-05-21T00:44:23.958Z,17.14
2023-05-21T00:44:39.557Z,17.07
2023-05-21T00:44:52.501Z,17.09
2023-05-21T00:45:06.079Z,17.08
2023-05-21T00:45:21.754Z,17.14
2023-05-21T00:45:34.771Z,17.12
2023-05-21T00:45:48.330Z,17.13
2023-05-21T00:46:03.783Z,17.14
2023-05-21T00:46:23.547Z,17.09
2023-05-21T00:46:37.574Z,17.06
2023-05-21T00:46:50.674Z,17.11
2023-05-21T00:47:03.804Z,17.11
2023-05-21T00:47:16.681Z,17.11
2023-05-21T00:47:29.800Z,17.09
2023-05-21T00:47:45.901Z,17.11
2023-05-21T00:47:59.099Z,17.03
2023-05-21T00:48:15.047Z,17.09
2023-05-21T00:48:28.427Z,17.07
2023-05-21T00:48:40.924Z,17.09
2023-05-21T00:48:56.035Z,17.04
2023-05-21T00:49:11.604Z,17.02
2023-05-21T00:49:24.756Z,17.08
2023-05-21T00:49:37.896Z,17.07
2023-05-21T00:49:51.407Z,17.05
2023-05-21T00:50:05.855Z,17.03
2023-05-21T00:50:18.670Z,17.08
2023-05-21T00:50:31.658Z,17.00
2023-05-21T00:50:47.066Z,16.99
2023-05-21T00:50:59.798Z,17.03
2023-05-21T00:51:16.300Z,17.01
2023-05-21T00:51:29.532Z,17.07
2023-05-21T00:51:42.497Z,17.06
2023-05-21T00:51:55.891Z,17.06
2023-05-21T00:52:08.808Z,17.03
2023-05-21T00:52:21.535Z,16.99
2023-05-21T00:52:34.615Z,17.01
2023-05-21T00:52:48.000Z,17.01
2023-05-21T00:53:03.616Z,17.05
2023-05-21T00:53:17.549Z,17.05
2023-05-21T00:53:32.590Z,17.06
2023-05-21T00:53:45.943Z,17.05
2023-05-21T00:53:59.019Z,17.06
2023-05-21T00:54:14.582Z,17.04
2023-05-21T00:54:28.305Z,17.00
2023-05-21T00:54:42.434Z,17.05
2023-05-21T00:54:55.354Z,17.04
2023-05-21T00:55:11.535Z,17.04
2023-05-21T00:55:25.266Z,17.03
2023-05-21T00:55:38.399Z,17.03
2023-05-21T00:55:55.034Z,17.01
2023-05-21T00:56:07.958Z,17.00
2023-05-21T00:56:21.530Z,16.95
2023-05-21T00:56:34.570Z,16.97
2023-05-21T00:56:48.515Z,17.01
2023-05-21T00:57:05.634Z,17.00
2023-05-21T00:57:20.321Z,17.00
2023-05-21T00:59:51.586Z,16.93
2023-05-21T01:00:06.567Z,16.95
2023-05-21T01:00:25.878Z,16.95
2023-05-21T01:00:38.792Z,16.92
2023-05-21T01:00:53.296Z,16.93
2023-05-21T01:01:05.876Z,16.92
2023-05-21T01:01:18.783Z,16.92
2023-05-21T01:01:32.756Z,16.91
2023-05-21T01:01:45.782Z,16.91
2023-05-21T01:01:58.740Z,16.91
2023-05-21T01:02:11.252Z,16.90
2023-05-21T01:02:23.780Z,16.88
2023-05-21T01:02:37.560Z,16.90
2023-05-21T01:02:50.666Z,16.88
2023-05-21T01:03:04.197Z,16.88
2023-05-21T01:03:17.552Z,16.82
2023-05-21T01:03:30.762Z,16.88
2023-05-21T01:03:43.954Z,16.88
2023-05-21T01:03:56.719Z,16.89
2023-05-21T01:04:09.482Z,16.90
2023-05-21T01:04:23.314Z,16.89
2023-05-21T01:04:36.760Z,16.81
2023-05-21T01:04:51.819Z,16.84
2023-05-21T01:05:04.981Z,16.90
2023-05-21T01:05:17.989Z,16.83
2023-05-21T01:05:31.055Z,16.88
2023-05-21T01:05:43.683Z,16.87
2023-05-21T01:05:56.686Z,16.87
2023-05-21T01:06:10.793Z,16.87
2023-05-21T01:06:23.526Z,16.86
2023-05-21T01:06:35.711Z,16.81
2023-05-21T01:06:47.940Z,16.77
2023-05-21T01:07:00.564Z,16.86
2023-05-21T01:07:13.795Z,16.81
2023-05-21T01:07:27.000Z,16.85
2023-05-21T01:07:42.249Z,16.81
2023-05-21T01:07:58.290Z,16.86
2023-05-21T01:08:11.310Z,16.82
2023-05-21T01:08:23.998Z,16.84
2023-05-21T01:08:41.058Z,16.79
2023-05-21T01:08:55.281Z,16.78
2023-05-21T01:09:10.842Z,16.84
2023-05-21T01:09:23.437Z,16.81
2023-05-21T01:09:35.843Z,16.80
2023-05-21T01:09:49.627Z,16.83
2023-05-21T01:10:03.555Z,16.83
2023-05-21T01:10:16.456Z,16.83
2023-05-21T01:10:29.805Z,16.83
2023-05-21T01:10:43.060Z,16.82
2023-05-21T01:10:55.758Z,16.84
2023-05-21T01:11:09.719Z,16.82
2023-05-21T01:11:33.486Z,16.83
2023-05-21T01:11:48.986Z,16.75
2023-05-21T01:12:02.049Z,16.78
2023-05-21T01:12:17.599Z,16.83
2023-05-21T01:12:32.089Z,16.79
2023-05-21T01:12:47.867Z,16.77
2023-05-21T01:13:01.141Z,16.78
2023-05-21T01:13:14.811Z,16.81
2023-05-21T01:13:27.913Z,16.81
2023-05-21T01:13:41.898Z,16.79
2023-05-21T01:13:54.848Z,16.81
2023-05-21T01:14:08.473Z,16.79
2023-05-21T01:14:22.672Z,16.79
2023-05-21T01:14:36.616Z,16.78
2023-05-21T01:14:49.865Z,16.78
2023-05-21T01:15:03.161Z,16.79
2023-05-21T01:15:15.963Z,16.79
2023-05-21T01:15:31.576Z,16.75
2023-05-21T01:15:44.613Z,16.75
2023-05-21T01:15:58.606Z,16.79
2023-05-21T01:16:11.801Z,16.75
2023-05-21T01:16:24.561Z,16.79
2023-05-21T01:16:38.330Z,16.77
2023-05-21T01:16:51.893Z,16.78
2023-05-21T01:17:06.587Z,16.70
2023-05-21T01:17:19.837Z,16.79
2023-05-21T01:17:32.867Z,16.77
2023-05-21T01:17:46.579Z,16.79
2023-05-21T01:17:59.302Z,16.77
2023-05-21T01:18:15.329Z,16.79
2023-05-21T01:18:27.789Z,16.71
2023-05-21T01:18:40.704Z,16.77
2023-05-21T01:18:53.664Z,16.75
2023-05-21T01:19:07.533Z,16.78
2023-05-21T01:19:22.183Z,16.78
2023-05-21T01:19:34.560Z,16.79
2023-05-21T01:19:49.814Z,16.79
2023-05-21T01:20:02.411Z,16.78
2023-05-21T01:20:20.951Z,16.75
2023-05-21T01:20:36.486Z,16.78
2023-05-21T01:20:49.432Z,16.75
2023-05-21T01:21:02.460Z,16.75
2023-05-21T01:21:14.909Z,16.77
2023-05-21T01:21:32.021Z,16.77
2023-05-21T01:21:47.384Z,16.71
2023-05-21T01:22:03.807Z,16.72
2023-05-21T01:22:18.132Z,16.76
2023-05-21T01:22:32.969Z,16.74
2023-05-21T01:22:53.268Z,16.73
2023-05-21T01:23:05.913Z,16.72
2023-05-21T01:23:19.555Z,16.69
2023-05-21T01:23:34.386Z,16.73
2023-05-21T01:23:47.333Z,16.72
2023-05-21T01:24:00.039Z,16.73
2023-05-21T01:24:12.647Z,16.66
2023-05-21T01:24:25.375Z,16.71
2023-05-21T01:24:39.653Z,16.70
2023-05-21T01:24:54.060Z,16.72
2023-05-21T01:25:07.463Z,16.68
2023-05-21T01:25:20.018Z,16.70
2023-05-21T01:25:32.355Z,16.70
2023-05-21T01:25:44.946Z,16.72
2023-05-21T01:25:57.753Z,16.70
2023-05-21T01:26:10.348Z,16.65
2023-05-21T01:26:23.101Z,16.65
2023-05-21T01:26:35.492Z,16.69
2023-05-21T01:26:48.258Z,16.68
2023-05-21T01:27:03.150Z,16.70
2023-05-21T01:27:16.082Z,16.63
2023-05-21T01:27:29.104Z,16.67
2023-05-21T01:27:41.394Z,16.68
2023-05-21T01:27:54.014Z,16.64
2023-05-21T01:28:06.489Z,16.70
2023-05-21T01:28:19.142Z,16.67
2023-05-21T01:28:31.945Z,16.67
2023-05-21T01:28:44.409Z,16.67
2023-05-21T01:28:57.044Z,16.63
2023-05-21T01:29:09.850Z,16.62
2023-05-21T01:29:22.210Z,16.64
2023-05-21T01:29:34.704Z,16.66
2023-05-21T01:29:47.424Z,16.64
2023-05-21T01:30:02.893Z,16.63
2023-05-21T01:30:19.239Z,16.63
2023-05-21T01:30:31.858Z,16.58
2023-05-21T01:30:44.570Z,16.65
2023-05-21T01:31:03.795Z,16.64
2023-05-21T01:31:23.015Z,16.61
2023-05-21T01:31:41.245Z,16.63
2023-05-21T01:31:59.901Z,16.64
2023-05-21T01:32:19.983Z,16.63
2023-05-21T01:32:38.809Z,16.58
2023-05-21T01:33:00.810Z,16.63
2023-05-21T01:33:18.777Z,16.61
2023-05-21T01:33:39.191Z,16.60
2023-05-21T01:33:55.461Z,16.60
2023-05-21T01:34:12.129Z,16.55
2023-05-21T01:34:32.858Z,16.60
2023-05-21T01:34:51.021Z,16.59
2023-05-21T01:35:08.488Z,16.52
2023-05-21T01:35:22.927Z,16.55
2023-05-21T01:35:39.692Z,16.56
2023-05-21T01:36:12.455Z,16.56
2023-05-21T01:36:29.444Z,16.52
2023-05-21T01:36:49.413Z,16.57
2023-05-21T01:37:13.482Z,16.56
2023-05-21T01:37:30.964Z,16.55
2023-05-21T01:37:48.604Z,16.51
2023-05-21T01:38:08.776Z,16.55
2023-05-21T01:38:28.654Z,16.55
2023-05-21T01:38:44.006Z,16.54
2023-05-21T01:39:01.928Z,16.51
2023-05-21T01:39:18.997Z,16.51
2023-05-21T01:39:38.529Z,16.54
2023-05-21T01:39:55.688Z,16.48
2023-05-21T01:40:14.317Z,16.52
2023-05-21T01:40:32.526Z,16.46
2023-05-21T01:40:52.810Z,16.51
2023-05-21T01:41:11.203Z,16.51
2023-05-21T01:41:27.213Z,16.45
2023-05-21T01:41:43.959Z,16.47
2023-05-21T01:41:57.788Z,16.45
2023-05-21T01:42:11.834Z,16.43
2023-05-21T01:42:29.288Z,16.48
2023-05-21T01:42:47.618Z,16.49
2023-05-21T01:43:00.511Z,16.49
2023-05-21T01:43:14.852Z,16.47
2023-05-21T01:43:29.711Z,16.42
2023-05-21T01:43:48.660Z,16.41
2023-05-21T01:44:02.501Z,16.42
2023-05-21T01:44:18.822Z,16.43
2023-05-21T01:44:32.317Z,16.47
2023-05-21T01:44:45.376Z,16.46
2023-05-21T01:45:00.019Z,16.47
2023-05-21T01:45:16.067Z,16.46
2023-05-21T01:45:31.892Z,16.46
2023-05-21T01:45:46.453Z,16.45
2023-05-21T01:46:00.081Z,16.45
2023-05-21T01:46:26.527Z,16.45
2023-05-21T01:46:40.178Z,16.41
2023-05-21T01:46:53.717Z,16.45
2023-05-21T01:47:07.057Z,16.45
2023-05-21T01:47:24.735Z,16.44
2023-05-21T01:47:39.982Z,16.47
2023-05-21T01:47:56.819Z,16.42
2023-05-21T01:48:13.928Z,16.41
2023-05-21T01:48:29.070Z,16.43
2023-05-21T01:48:42.645Z,16.40
2023-05-21T01:48:57.064Z,16.42
2023-05-21T01:49:10.771Z,16.44
2023-05-21T01:49:23.694Z,16.39
2023-05-21T01:49:36.713Z,16.38
2023-05-21T01:49:50.642Z,16.40
2023-05-21T01:50:04.970Z,16.39
2023-05-21T01:50:19.121Z,16.43
2023-05-21T01:50:32.416Z,16.43
2023-05-21T01:50:46.439Z,16.37
2023-05-21T01:51:04.631Z,16.43
2023-05-21T01:51:17.471Z,16.43
2023-05-21T01:51:30.983Z,16.43
2023-05-21T01:51:44.704Z,16.41
2023-05-21T01:51:57.711Z,16.36
2023-05-21T01:52:10.563Z,16.42
2023-05-21T01:52:23.226Z,16.43
2023-05-21T01:52:36.723Z,16.43
2023-05-21T01:52:50.098Z,16.40
2023-05-21T01:53:03.915Z,16.41
2023-05-21T01:53:16.560Z,16.39
2023-05-21T01:53:28.879Z,16.38
2023-05-21T01:53:41.452Z,16.40
2023-05-21T01:53:54.052Z,16.39
2023-05-21T01:54:09.808Z,16.41
2023-05-21T01:54:22.351Z,16.35
2023-05-21T01:54:35.105Z,16.35
2023-05-21T01:54:47.388Z,16.40
2023-05-21T01:55:00.116Z,16.41
2023-05-21T01:55:12.623Z,16.41
2023-05-21T01:55:25.158Z,16.37
2023-05-21T01:55:38.171Z,16.41
2023-05-21T01:55:50.748Z,16.37
2023-05-21T01:56:03.288Z,16.39
2023-05-21T01:56:16.180Z,16.37
2023-05-21T01:56:28.569Z,16.36
2023-05-21T01:56:40.809Z,16.40
2023-05-21T01:56:53.302Z,16.35
2023-05-21T01:57:08.807Z,16.37
2023-05-21T01:57:21.923Z,16.38
2023-05-21T01:57:34.392Z,16.38
2023-05-21T01:57:46.794Z,16.39
2023-05-21T01:58:02.334Z,16.36
2023-05-21T01:58:15.512Z,16.37
2023-05-21T01:58:28.078Z,16.40
2023-05-21T01:58:41.200Z,16.38
2023-05-21T01:58:53.459Z,16.41
2023-05-21T01:59:06.290Z,16.37
2023-05-21T01:59:18.810Z,16.35
2023-05-21T01:59:31.472Z,16.39
2023-05-21T01:59:45.767Z,16.33
2023-05-21T01:59:59.345Z,16.37
2023-05-21T02:00:13.517Z,16.38
2023-05-21T02:00:29.026Z,16.31
2023-05-21T02:00:42.407Z,16.30
2023-05-21T02:00:57.798Z,16.35
2023-05-21T02:01:12.744Z,16.32
2023-05-21T02:01:25.612Z,16.33
2023-05-21T02:01:38.114Z,16.36
2023-05-21T02:01:52.494Z,16.33
2023-05-21T02:02:05.223Z,16.33
2023-05-21T02:02:17.613Z,16.31
2023-05-21T02:02:30.465Z,16.31
2023-05-21T02:02:43.577Z,16.33
2023-05-21T02:02:56.673Z,16.34
2023-05-21T02:03:12.565Z,16.34
2023-05-21T02:03:27.378Z,16.32
2023-05-21T02:03:39.877Z,16.34
2023-05-21T02:03:52.619Z,16.26
2023-05-21T02:04:10.989Z,16.33
2023-05-21T02:04:23.710Z,16.28
2023-05-21T02:04:35.997Z,16.27
2023-05-21T02:04:48.706Z,16.31
2023-05-21T02:05:01.063Z,16.35
2023-05-21T02:05:13.835Z,16.25
2023-05-21T02:05:26.591Z,16.33
2023-05-21T02:05:38.947Z,16.33
2023-05-21T02:05:51.649Z,16.33
2023-05-21T02:06:03.998Z,16.32
2023-05-21T02:06:16.540Z,16.33
2023-05-21T02:06:29.088Z,16.28
2023-05-21T02:06:41.475Z,16.33
2023-05-21T02:06:53.988Z,16.28
2023-05-21T02:07:06.518Z,16.33
2023-05-21T02:07:19.007Z,16.24
2023-05-21T02:07:33.865Z,16.31
2023-05-21T02:07:49.734Z,16.29
2023-05-21T02:08:04.713Z,16.29
2023-05-21T02:08:17.163Z,16.30
2023-05-21T02:08:29.637Z,16.30
2023-05-21T02:08:42.650Z,16.25
2023-05-21T02:08:55.533Z,16.30
2023-05-21T02:09:08.329Z,16.27
2023-05-21T02:09:20.803Z,16.26
2023-05-21T02:09:33.163Z,16.26
2023-05-21T02:09:45.965Z,16.30
2023-05-21T02:09:58.664Z,16.30
2023-05-21T02:10:12.011Z,16.25
2023-05-21T02:10:24.550Z,16.25
2023-05-21T02:10:37.789Z,16.31
2023-05-21T02:10:50.984Z,16.25
2023-05-21T02:11:03.519Z,16.24
2023-05-21T02:11:16.020Z,16.30
2023-05-21T02:11:28.767Z,16.29
2023-05-21T02:11:43.449Z,16.28
2023-05-21T02:11:56.381Z,16.27
2023-05-21T02:12:09.294Z,16.22
2023-05-21T02:12:21.767Z,16.24
2023-05-21T02:12:34.403Z,16.26
2023-05-21T02:12:46.802Z,16.28
2023-05-21T02:12:59.341Z,16.21
2023-05-21T02:13:11.735Z,16.26
2023-05-21T02:13:26.033Z,16.27
2023-05-21T02:13:39.400Z,16.28
2023-05-21T02:13:52.439Z,16.27
2023-05-21T02:14:04.728Z,16.21
2023-05-21T02:14:20.297Z,16.25
2023-05-21T02:14:32.581Z,16.26
2023-05-21T02:14:44.717Z,16.26
2023-05-21T02:14:57.615Z,16.25
2023-05-21T02:15:10.158Z,16.25
2023-05-21T02:15:22.744Z,16.24
2023-05-21T02:15:35.230Z,16.23
2023-05-21T02:15:47.887Z,16.24
2023-05-21T02:16:00.915Z,16.24
2023-05-21T02:16:13.208Z,16.24
2023-05-21T02:16:26.409Z,16.22
2023-05-21T02:16:38.775Z,16.24
2023-05-21T02:16:51.027Z,16.19
2023-05-21T02:17:03.771Z,16.25
2023-05-21T02:17:16.597Z,16.25
2023-05-21T02:17:29.485Z,16.24
2023-05-21T02:17:42.494Z,16.26
2023-05-21T02:17:57.458Z,16.26
2023-05-21T02:18:13.063Z,16.18
2023-05-21T02:18:25.487Z,16.23
2023-05-21T02:18:38.119Z,16.25
2023-05-21T02:18:50.546Z,16.20
2023-05-21T02:19:03.515Z,16.27
2023-05-21T02:19:19.337Z,16.25
2023-05-21T02:19:31.845Z,16.24
2023-05-21T02:19:44.290Z,16.23
2023-05-21T02:19:56.957Z,16.21
2023-05-21T02:20:10.470Z,16.23
2023-05-21T02:20:25.494Z,16.24
2023-05-21T02:20:38.050Z,16.25
2023-05-21T02:20:50.418Z,16.25
2023-05-21T02:21:02.876Z,16.27
2023-05-21T02:21:15.662Z,16.26
2023-05-21T02:21:27.962Z,16.19
2023-05-21T02:21:40.040Z,16.22
2023-05-21T02:21:52.363Z,16.26
2023-05-21T02:22:05.380Z,16.21
2023-05-21T02:22:17.856Z,16.19
2023-05-21T02:22:32.738Z,16.25
2023-05-21T02:22:46.726Z,16.19
2023-05-21T02:22:59.333Z,16.20
2023-05-21T02:23:13.367Z,16.23
2023-05-21T02:23:25.780Z,16.17
2023-05-21T02:23:38.630Z,16.21
2023-05-21T02:23:51.173Z,16.16
2023-05-21T02:24:03.949Z,16.19
2023-05-21T02:24:16.543Z,16.21
2023-05-21T02:24:29.534Z,16.16
2023-05-21T02:24:42.022Z,16.21
2023-05-21T02:24:54.434Z,16.20
2023-05-21T02:25:08.481Z,16.18
2023-05-21T02:25:21.250Z,16.20
2023-05-21T02:25:33.894Z,16.20
2023-05-21T02:25:46.664Z,16.19
2023-05-21T02:25:59.688Z,16.19
2023-05-21T02:26:12.086Z,16.20
2023-05-21T02:26:24.776Z,16.18
2023-05-21T02:26:39.975Z,16.17
2023-05-21T02:26:52.450Z,16.15
2023-05-21T02:27:05.394Z,16.11
2023-05-21T02:27:17.611Z,16.18
2023-05-21T02:27:30.033Z,16.13
2023-05-21T02:27:43.502Z,16.18
2023-05-21T02:27:55.967Z,16.13
2023-05-21T02:28:08.493Z,16.12
2023-05-21T02:28:21.487Z,16.17
2023-05-21T02:28:34.372Z,16.17
2023-05-21T02:28:46.799Z,16.11
2023-05-21T02:29:04.913Z,16.17
2023-05-21T02:29:20.047Z,16.18
2023-05-21T02:29:32.566Z,16.17
2023-05-21T02:29:45.449Z,16.12
2023-05-21T02:29:58.153Z,16.14
2023-05-21T02:30:12.524Z,16.15
2023-05-21T02:30:25.164Z,16.16
2023-05-21T02:30:38.574Z,16.16
2023-05-21T02:30:51.348Z,16.10
2023-05-21T02:31:03.712Z,16.16
2023-05-21T02:31:16.379Z,16.16
2023-05-21T02:31:28.790Z,16.15
2023-05-21T02:31:41.425Z,16.10
2023-05-21T02:31:54.069Z,16.09
2023-05-21T02:32:10.689Z,16.14
2023-05-21T02:32:28.339Z,16.15
2023-05-21T02:32:40.976Z,16.10
2023-05-21T02:32:54.148Z,16.15
2023-05-21T02:33:06.600Z,16.12
2023-05-21T02:33:19.765Z,16.10
2023-05-21T02:33:32.309Z,16.14
2023-05-21T02:33:45.028Z,16.05
2023-05-21T02:33:57.673Z,16.08
2023-05-21T02:34:10.635Z,16.13
2023-05-21T02:34:25.150Z,16.13
2023-05-21T02:34:38.103Z,16.14
2023-05-21T02:34:50.607Z,16.11
2023-05-21T02:35:04.768Z,16.07
2023-05-21T02:35:19.078Z,16.10
2023-05-21T02:35:31.836Z,16.08
2023-05-21T02:35:44.569Z,16.11
2023-05-21T02:35:57.176Z,16.13
2023-05-21T02:36:10.477Z,16.10
2023-05-21T02:36:22.909Z,16.12
2023-05-21T02:36:35.497Z,16.13
2023-05-21T02:36:48.157Z,16.07
2023-05-21T02:37:00.652Z,16.12
2023-05-21T02:37:13.786Z,16.12
2023-05-21T02:37:27.560Z,16.13
2023-05-21T02:37:40.803Z,16.14
2023-05-21T02:37:55.343Z,16.13
2023-05-21T02:38:08.023Z,16.05
2023-05-21T02:38:22.904Z,16.10
2023-05-21T02:38:35.674Z,16.12
2023-05-21T02:38:49.003Z,16.12
2023-05-21T02:39:01.838Z,16.13
2023-05-21T02:39:14.768Z,16.05
2023-05-21T02:39:27.486Z,16.13
2023-05-21T02:39:40.020Z,16.05
2023-05-21T02:39:52.718Z,16.10
2023-05-21T02:40:10.483Z,16.10
2023-05-21T02:40:23.511Z,16.12
2023-05-21T02:40:36.432Z,16.12
2023-05-21T02:40:49.705Z,16.10
2023-05-21T02:41:05.437Z,16.11
2023-05-21T02:41:18.021Z,16.10
2023-05-21T02:41:30.642Z,16.08
2023-05-21T02:41:43.255Z,16.10
2023-05-21T02:41:55.807Z,16.10
2023-05-21T02:42:08.110Z,16.04
2023-05-21T02:42:22.968Z,16.07
2023-05-21T02:42:40.557Z,16.09
2023-05-21T02:42:56.605Z,16.10
2023-05-21T02:43:09.457Z,16.05
2023-05-21T02:43:24.792Z,16.04
2023-05-21T02:43:37.589Z,16.01
2023-05-21T02:43:50.147Z,16.08
2023-05-21T02:44:02.844Z,16.01
2023-05-21T02:44:16.316Z,16.07
2023-05-21T02:44:33.880Z,16.07
2023-05-21T02:44:46.655Z,15.97
2023-05-21T02:45:00.256Z,16.06
2023-05-21T02:45:13.622Z,16.02
2023-05-21T02:45:29.531Z,15.99
2023-05-21T02:45:42.651Z,16.06
2023-05-21T02:45:58.444Z,16.04
2023-05-21T02:46:12.354Z,16.05
2023-05-21T02:46:24.950Z,16.04
2023-05-21T02:46:38.798Z,16.04
2023-05-21T02:46:51.828Z,15.99
2023-05-21T02:47:04.429Z,16.04
2023-05-21T02:47:17.002Z,16.03
2023-05-21T02:47:29.651Z,15.98
2023-05-21T02:47:42.640Z,16.03
2023-05-21T02:47:55.342Z,16.03
2023-05-21T02:48:07.762Z,16.03
2023-05-21T02:48:26.920Z,16.03
2023-05-21T02:48:39.565Z,16.01
2023-05-21T02:48:53.631Z,16.02
2023-05-21T02:49:07.808Z,15.98
2023-05-21T02:49:20.692Z,15.99
2023-05-21T02:49:34.022Z,16.03
2023-05-21T02:49:47.423Z,15.99
2023-05-21T02:50:01.377Z,16.04
2023-05-21T02:50:14.707Z,16.02
2023-05-21T02:50:34.802Z,16.03
2023-05-21T02:50:47.663Z,16.01
2023-05-21T02:51:00.431Z,16.00
2023-05-21T02:51:13.783Z,16.02
2023-05-21T02:51:26.690Z,16.03
2023-05-21T02:51:39.552Z,16.03
2023-05-21T02:51:52.793Z,16.03
2023-05-21T02:52:06.172Z,16.03
2023-05-21T02:52:19.122Z,16.02
2023-05-21T02:52:34.989Z,16.00
2023-05-21T02:52:50.437Z,15.99
2023-05-21T02:53:03.408Z,16.03
2023-05-21T02:53:16.617Z,15.98
2023-05-21T02:53:31.591Z,15.97
2023-05-21T02:53:44.196Z,16.03
2023-05-21T02:54:01.961Z,16.02
2023-05-21T02:54:15.692Z,15.99
2023-05-21T02:54:28.722Z,16.02
2023-05-21T02:54:41.467Z,16.03
2023-05-21T02:54:54.496Z,15.96
2023-05-21T02:55:08.056Z,16.02
2023-05-21T02:55:20.922Z,16.00
2023-05-21T02:55:33.948Z,16.01
2023-05-21T02:55:47.453Z,16.01
2023-05-21T02:55:59.843Z,15.96
2023-05-21T02:56:14.930Z,16.01
2023-05-21T02:56:30.242Z,15.94
2023-05-21T02:56:42.987Z,15.99
2023-05-21T02:56:55.447Z,16.02
2023-05-21T02:57:07.921Z,16.01
2023-05-21T02:57:20.449Z,16.01
2023-05-21T02:57:33.439Z,15.99
2023-05-21T02:57:46.141Z,16.01
2023-05-21T02:57:58.939Z,15.98
2023-05-21T02:58:11.417Z,15.98
2023-05-21T02:58:23.841Z,16.01
2023-05-21T02:58:36.807Z,15.96
2023-05-21T02:58:49.777Z,16.02
2023-05-21T02:59:02.871Z,15.97
2023-05-21T02:59:15.136Z,15.97
2023-05-21T02:59:27.654Z,16.02
2023-05-21T02:59:40.017Z,16.02